Terminal Aerodrome Forecast
Issued by NWS

Current Version | Previous Version | Text Only | Print | Product List | Glossary On
Versions: 1 2 3 4 5 6 7 8 9 10 11 12 13 14
000
FTUS43 KIND 211422 AAA
TAFLAF
TAF AMD
KLAF 211422Z 2114/2212 18007KT P6SM BKN250
     FM220100 16007KT P6SM BKN250 WS020/18030KT
     FM221000 17008KT P6SM BKN130 WS020/20040KT=

USA.gov is the U.S. government's official web portal to all federal, state and local government web resources and services.